Latest Weather Observations for Cape Grim

IDT60801

Issued at 8:31 pm EST Monday 30 May 2016 (issued every 30 minutes, with the page automatically refreshed every 10 minutes)

About weather observations | Map of weather stations | Latest weather observations for TAS | Other Formats
Station Details ID: 091331 Name: CAPE GRIM Lat: -40.68 Lon: 144.69 Height: 86.0 m
Data from the previous 72 hours. | See also: Recent months at Cape Grim
Date/Time
EST
Temp
°C
App
Temp
°C
Dew
Point
Rel
Hum
%
Delta-T
°C
Wind Press
QNH
hPa
Press
MSL
hPa
Rain
since 9 am
mm
Dir
 
Spd
km/h
Gust
km/h
Spd
kts
Gust
kts
30/08:30pm 8.9 4.6 7.8 93 0.5 E 20 22 11 12 1028.6 1028.7 0.0
30/08:00pm 9.6 5.5 8.5 93 0.5 ESE 20 22 11 12 1028.5 1028.6 0.0
30/07:30pm 9.6 5.4 8.4 92 0.6 E 20 22 11 12 1028.4 1028.5 0.0
30/07:00pm 9.8 5.9 8.6 92 0.6 E 19 20 10 11 1028.1 1028.2 0.0
30/06:30pm 9.5 5.3 8.3 92 0.6 ESE 20 22 11 12 1027.8 1027.9 0.0
30/06:00pm 9.6 5.4 8.2 91 0.7 ESE 20 22 11 12 1027.5 1027.6 0.0
30/05:30pm 9.8 5.8 8.1 89 0.8 ESE 19 20 10 11 1027.3 1027.4 0.0
30/05:00pm 10.3 6.6 8.1 86 1.1 E 17 22 9 12 1027.1 1027.2 0.0
30/04:30pm 11.1 7.1 8.3 83 1.4 E 19 22 10 12 1026.9 1027.0 0.0
30/04:00pm 11.9 8.0 8.7 81 1.6 E 19 22 10 12 1026.7 1026.8 0.0
30/03:30pm 12.3 8.1 8.4 77 1.9 E 20 24 11 13 1026.4 1026.5 0.0
30/03:00pm 12.6 8.5 8.5 76 2.0 E 20 26 11 14 1026.3 1026.4 0.0
30/02:30pm 12.6 8.1 8.5 76 2.0 ENE 22 26 12 14 1026.2 1026.3 0.0
30/02:00pm 12.8 8.9 8.5 75 2.1 E 19 24 10 13 1026.2 1026.3 0.0
30/01:30pm 12.6 8.8 7.7 72 2.4 E 17 20 9 11 1026.4 1026.5 0.0
30/01:00pm 12.6 9.3 8.1 74 2.2 ESE 15 17 8 9 1026.4 1026.5 0.0
30/12:30pm 11.9 8.9 7.6 75 2.1 E 13 17 7 9 1026.5 1026.6 0.0
30/12:00pm 11.8 8.8 7.5 75 2.1 ESE 13 17 7 9 1026.8 1026.9 0.0
30/11:30am 11.6 8.4 6.9 73 2.3 E 13 17 7 9 1027.0 1027.1 0.0
30/11:00am 11.2 8.3 6.5 73 2.2 SE 11 15 6 8 1027.2 1027.3 0.0
30/10:30am 10.6 8.4 6.0 73 2.1 SSE 7 9 4 5 1027.3 1027.4 0.0
30/10:00am 9.8 7.0 5.2 73 2.1 SE 9 13 5 7 1027.0 1027.1 0.0
30/09:30am 9.5 6.6 4.5 71 2.2 SSE 9 11 5 6 1026.8 1026.9 0.0
30/09:00am 8.2 4.2 3.1 70 2.2 SE 13 17 7 9 1026.4 1026.5 0.0
30/08:30am 8.9 4.9 3.1 67 2.5 S 13 19 7 10 1026.2 1026.3 0.0
30/08:00am 8.3 4.0 3.0 69 2.2 SSE 15 20 8 11 1025.9 1026.0 0.0
30/07:30am 8.1 3.8 3.0 70 2.2 SSE 15 20 8 11 1025.6 1025.7 0.0
30/07:00am 7.9 3.6 3.0 71 2.1 SSE 15 20 8 11 1025.3 1025.4 0.0
30/06:30am 8.2 3.9 3.3 71 2.1 SSE 15 20 8 11 1025.0 1025.0 0.0
30/06:00am 7.8 3.5 3.1 72 2.0 SSE 15 20 8 11 1024.7 1024.7 0.0
30/05:30am 7.9 3.2 3.2 72 2.0 SSE 17 22 9 12 1024.5 1024.5 0.0
30/05:00am 8.0 3.7 3.5 73 1.9 S 15 19 8 10 1024.2 1024.2 0.0
30/04:30am 7.9 4.0 3.4 73 1.9 S 13 19 7 10 1024.1 1024.1 0.0
30/04:00am 7.7 4.1 3.2 73 1.9 S 11 17 6 9 1023.8 1023.8 0.0
30/03:30am 8.3 4.1 3.6 72 2.0 S 15 20 8 11 1023.6 1023.6 0.0
30/03:00am 8.2 4.0 3.7 73 1.9 S 15 19 8 10 1023.7 1023.7 0.0
30/02:30am 8.3 4.5 3.8 73 2.0 S 13 20 7 11 1023.6 1023.6 0.0
30/02:00am 8.3 4.4 3.6 72 2.0 S 13 17 7 9 1023.3 1023.3 0.0
30/01:30am 8.4 4.1 3.5 71 2.1 S 15 17 8 9 1023.1 1023.1 0.0
30/01:00am 8.7 4.5 3.9 72 2.1 S 15 19 8 10 1023.1 1023.1 0.0
30/12:30am 8.6 4.4 3.8 72 2.1 S 15 20 8 11 1023.0 1023.0 0.0
30/12:00am 8.5 4.7 3.9 73 2.0 S 13 19 7 10 1022.9 1022.9 0.0
 
Date/Time
EST
Temp
°C
App
Temp
°C
Dew
Point
Rel
Hum
%
Delta-T
°C
Wind Press
QNH
hPa
Press
MSL
hPa
Rain
since 9 am
mm
Dir
 
Spd
km/h
Gust
km/h
Spd
kts
Gust
kts
29/11:30pm 8.7 4.5 3.9 72 2.1 S 15 20 8 11 1022.7 1022.7 0.0
29/11:00pm 9.3 4.8 4.1 70 2.3 S 17 22 9 12 1022.6 1022.6 0.0
29/10:30pm 8.7 4.5 3.9 72 2.1 S 15 20 8 11 1022.4 1022.4 0.0
29/10:00pm 8.6 4.8 3.8 72 2.1 SSE 13 20 7 11 1022.3 1022.3 0.0
29/09:30pm 8.8 4.3 4.0 72 2.1 S 17 20 9 11 1022.1 1022.1 0.0
29/09:00pm 9.0 4.0 3.8 70 2.3 S 19 26 10 14 1021.8 1021.8 0.0
29/08:30pm 9.4 4.5 4.0 69 2.4 SSE 19 24 10 13 1021.7 1021.7 0.0
29/08:00pm 9.5 4.6 4.3 70 2.3 S 19 26 10 14 1021.7 1021.7 0.0
29/07:30pm 10.8 5.5 5.1 68 2.6 SSW 22 35 12 19 1021.2 1021.2 0.0
29/07:00pm 10.7 5.0 5.0 68 2.6 SSW 24 37 13 20 1020.9 1020.9 0.0
29/06:30pm 10.5 3.9 4.4 66 2.7 SSW 28 35 15 19 1020.5 1020.5 0.0
29/06:00pm 10.9 4.2 5.4 69 2.5 SSW 30 43 16 23 1020.1 1020.1 0.0
29/05:30pm 10.7 3.4 4.6 66 2.8 SW 32 43 17 23 1019.9 1019.9 0.0
29/05:00pm 10.8 3.9 4.7 66 2.8 SSW 30 44 16 24 1019.6 1019.6 0.0
29/04:30pm 11.1 3.3 5.0 66 2.8 SW 35 52 19 28 1019.3 1019.3 0.0
29/04:00pm 11.2 3.5 5.5 68 2.6 SSW 35 46 19 25 1019.1 1019.1 0.0
29/03:30pm 11.1 3.3 4.8 65 2.9 SSW 35 46 19 25 1018.8 1018.8 0.0
29/03:00pm 11.3 3.5 5.0 65 2.9 SW 35 50 19 27 1018.7 1018.7 0.0
29/02:45pm 11.1 3.8 4.6 64 2.9 SW 32 50 17 27 1018.6 1018.6 0.0
29/02:30pm 11.2 2.9 4.2 62 3.1 SW 37 52 20 28 1018.5 1018.5 0.0
29/02:00pm 11.8 3.3 5.0 63 3.1 SW 39 52 21 28 1018.3 1018.3 0.0
29/01:30pm 11.5 2.7 5.4 66 2.8 SW 41 52 22 28 1018.3 1018.3 0.0
29/01:15pm 11.4 4.1 5.3 66 2.8 SW 33 52 18 28 1018.2 1018.2 0.0
29/01:00pm 11.4 4.2 4.8 64 3.0 SW 32 46 17 25 1018.2 1018.2 0.0
29/12:30pm 11.6 3.4 4.8 63 3.1 SW 37 54 20 29 1018.3 1018.3 0.0
29/12:00pm 11.6 3.1 5.3 65 2.9 SW 39 52 21 28 1018.2 1018.2 0.0
29/11:30am 11.7 4.3 4.2 60 3.4 SSW 32 41 17 22 1018.2 1018.2 0.0
29/11:00am 12.0 4.6 5.0 62 3.2 SW 33 44 18 24 1018.2 1018.2 0.0
29/10:30am 11.5 3.7 4.7 63 3.1 SW 35 50 19 27 1018.1 1018.1 0.0
29/10:01am 11.7 4.3 4.9 63 3.1 SW 33 52 18 28 1017.8 1017.8 0.0
29/10:00am 11.8 4.4 5.2 64 3.0 SW 33 46 18 25 1017.8 1017.8 0.0
29/09:58am 12.0 4.4 5.6 65 3.0 SW 35 54 19 29 1017.8 1017.8 0.0
29/09:30am 11.4 2.7 4.2 61 3.2 SW 39 48 21 26 1017.5 1017.6 0.0
29/09:00am 11.3 2.6 4.3 62 3.2 SW 39 56 21 30 1017.2 1017.3 1.6
29/08:30am 11.3 2.7 4.5 63 3.1 SW 39 50 21 27 1017.0 1017.1 1.6
29/08:00am 11.5 2.7 5.4 66 2.8 SW 41 52 22 28 1016.6 1016.7 1.6
29/07:30am 11.5 2.8 5.8 68 2.7 SW 41 52 22 28 1016.1 1016.2 1.6
29/07:00am 11.5 2.3 5.6 67 2.7 SW 43 52 23 28 1015.9 1016.0 1.6
29/06:30am 11.5 2.4 6.0 69 2.6 SW 43 54 23 29 1015.5 1015.6 1.6
29/06:00am 11.6 2.5 5.7 67 2.7 SW 43 54 23 29 1015.3 1015.4 1.6
29/05:30am 11.4 2.6 5.7 68 2.7 SW 41 52 22 28 1015.0 1015.0 1.6
29/05:00am 11.5 2.1 5.6 67 2.7 SW 44 56 24 30 1014.7 1014.7 1.6
29/04:30am 11.4 2.1 5.7 68 2.7 SW 44 56 24 30 1014.5 1014.5 1.6
29/04:00am 11.5 2.3 5.6 67 2.7 SW 43 56 23 30 1014.3 1014.3 1.6
29/03:30am 11.5 2.2 5.8 68 2.7 SW 44 54 24 29 1014.1 1014.1 1.6
29/03:00am 11.7 2.6 6.6 71 2.4 SW 44 59 24 32 1014.0 1014.0 1.6
29/02:33am 11.5 4.3 7.6 77 1.9 SSW 35 54 19 29 1013.8 1013.8 1.6
29/02:30am 11.2 4.5 8.1 81 1.5 SSW 33 43 18 23 1013.9 1013.9 1.6
29/02:12am 11.7 3.8 8.0 78 1.8 SW 39 57 21 31 1013.7 1013.7 1.6
29/02:00am 11.6 3.1 6.9 73 2.3 SW 41 56 22 30 1013.6 1013.6 1.6
29/01:43am 11.6 2.2 7.1 74 2.2 SW 46 65 25 35 1013.4 1013.4 1.6
29/01:30am 11.4 2.0 7.3 76 2.0 SW 46 61 25 33 1013.3 1013.3 1.6
29/01:00am 11.8 2.5 7.5 75 2.1 SW 46 57 25 31 1013.2 1013.2 1.6
29/12:30am 11.9 2.8 7.0 72 2.4 SW 44 59 24 32 1013.2 1013.2 1.6
29/12:15am 11.9 3.4 6.8 71 2.4 SSW 41 59 22 32 1013.2 1013.2 1.6
29/12:00am 11.8 1.7 7.5 75 2.1 SW 50 63 27 34 1013.2 1013.2 1.6
 
Date/Time
EST
Temp
°C
App
Temp
°C
Dew
Point
Rel
Hum
%
Delta-T
°C
Wind Press
QNH
hPa
Press
MSL
hPa
Rain
since 9 am
mm
Dir
 
Spd
km/h
Gust
km/h
Spd
kts
Gust
kts
28/11:30pm 11.9 2.3 7.8 76 2.0 SW 48 65 26 35 1013.1 1013.1 1.6
28/11:00pm 11.7 2.3 7.0 73 2.3 SW 46 61 25 33 1013.0 1013.0 1.6
28/10:30pm 11.7 1.9 7.0 73 2.3 SW 48 63 26 34 1013.0 1013.0 1.6
28/10:00pm 11.6 1.1 7.3 75 2.1 SW 52 65 28 35 1012.9 1012.9 1.6
28/09:30pm 11.7 2.5 8.2 79 1.7 SW 46 61 25 33 1012.7 1012.7 1.6
28/09:08pm 11.0 2.3 7.5 79 1.7 SSW 43 61 23 33 1012.7 1012.7 1.4
28/09:00pm 12.1 2.9 7.8 75 2.1 SW 46 61 25 33 1012.5 1012.5 1.4
28/08:30pm 12.2 2.7 8.5 78 1.8 SW 48 63 26 34 1012.3 1012.3 1.4
28/08:00pm 12.0 1.4 8.3 78 1.8 SW 54 69 29 37 1012.0 1012.0 1.4
28/07:30pm 11.3 2.1 8.2 81 1.5 SW 46 65 25 35 1011.8 1011.8 1.4
28/07:00pm 11.1 2.5 8.3 83 1.4 SW 43 61 23 33 1011.7 1011.7 1.4
28/06:30pm 11.8 1.9 8.1 78 1.8 SW 50 59 27 32 1011.3 1011.3 1.4
28/06:00pm 11.5 1.4 8.9 84 1.3 SW 52 67 28 36 1011.0 1011.0 1.4
28/05:41pm 11.9 2.0 8.2 78 1.8 SW 50 69 27 37 1010.7 1010.7 1.4
28/05:30pm 11.9 1.6 8.2 78 1.8 SW 52 63 28 34 1010.6 1010.6 1.4
28/05:00pm 11.0 0.5 7.3 78 1.8 SW 52 63 28 34 1010.4 1010.4 1.4
28/04:30pm 11.6 1.1 7.5 76 2.0 SW 52 67 28 36 1010.2 1010.2 1.4
28/04:00pm 11.9 2.4 8.4 79 1.7 SW 48 57 26 31 1009.9 1009.9 1.4
28/03:30pm 11.4 0.6 7.7 78 1.8 SW 54 69 29 37 1009.8 1009.8 1.4
28/03:00pm 10.9 0.2 8.1 83 1.4 SW 54 69 29 37 1009.7 1009.7 1.4
28/02:41pm 11.7 2.5 7.8 77 1.9 SW 46 67 25 36 1009.3 1009.3 0.8
28/02:30pm 11.0 1.8 7.9 81 1.5 SW 46 61 25 33 1009.4 1009.4 0.8
28/02:00pm 10.5 2.3 8.1 85 1.2 SSW 41 63 22 34 1009.3 1009.3 0.8
28/01:30pm 10.2 0.1 7.4 83 1.3 SW 50 72 27 39 1009.4 1009.4 0.6
28/01:07pm 10.3 0.6 7.7 84 1.3 SW 48 67 26 36 1009.4 1009.4 0.4
28/01:00pm 11.2 0.5 7.9 80 1.6 SW 54 65 29 35 1009.4 1009.4 0.4
28/12:34pm 11.3 2.4 7.8 79 1.7 SW 44 63 24 34 1009.4 1009.4 0.4
28/12:30pm 11.1 1.0 7.4 78 1.8 SW 50 63 27 34 1009.5 1009.5 0.4
28/12:07pm 11.8 3.3 6.9 72 2.3 SW 41 59 22 32 1009.6 1009.6 0.4
28/12:00pm 11.7 2.2 6.8 72 2.3 SW 46 59 25 32 1009.7 1009.7 0.4
28/11:36am 11.2 3.7 7.9 80 1.6 SW 37 57 20 31 1009.9 1009.9 0.4
28/11:30am 11.0 3.5 7.9 81 1.5 SW 37 50 20 27 1010.1 1010.1 0.4
28/11:17am 11.6 2.9 8.3 80 1.6 SW 44 63 24 34 1010.0 1010.0 0.4
28/11:00am 10.7 1.8 7.6 81 1.5 SW 44 56 24 30 1010.1 1010.1 0.4
28/10:30am 10.8 3.9 7.3 79 1.7 SW 33 46 18 25 1010.1 1010.1 0.4
28/10:00am 10.8 3.6 7.5 80 1.6 SW 35 48 19 26 1009.9 1009.9 0.0
28/09:39am 10.8 3.9 7.1 78 1.8 SW 33 52 18 28 1009.7 1009.7 0.0
28/09:30am 10.7 3.6 7.9 83 1.4 SW 35 46 19 25 1009.7 1009.7 0.0
28/09:00am 10.5 3.7 7.7 83 1.4 SW 33 54 18 29 1009.8 1009.8 0.0
28/08:42am 11.0 4.2 6.9 76 2.0 SW 32 50 17 27 1009.7 1009.7 0.0
28/08:30am 10.9 3.5 6.6 75 2.0 SW 35 48 19 26 1009.7 1009.7 0.0
28/08:00am 10.9 3.8 6.6 75 2.0 SW 33 48 18 26 1009.6 1009.6 0.0
28/07:54am 10.8 4.0 6.9 77 1.9 SSW 32 48 17 26 1009.5 1009.5 0.0
28/07:30am 9.5 4.8 6.2 80 1.5 SSW 20 30 11 16 1009.7 1009.7 0.0
28/07:00am 8.7 4.4 5.3 79 1.5 S 17 26 9 14 1009.4 1009.4 0.0
28/06:30am 8.7 4.1 5.4 80 1.5 S 19 26 10 14 1009.2 1009.2 0.0
28/06:00am 9.2 4.5 5.9 80 1.5 S 20 28 11 15 1009.0 1009.0 0.0
28/05:30am 9.1 4.4 6.0 81 1.4 S 20 28 11 15 1008.8 1008.8 0.0
28/05:00am 9.3 4.2 6.2 81 1.4 SSW 22 32 12 17 1008.7 1008.7 0.0
28/04:30am 9.1 4.3 5.8 80 1.5 S 20 32 11 17 1008.7 1008.7 0.0
28/04:00am 8.8 3.2 5.2 78 1.6 S 24 33 13 18 1008.5 1008.5 0.0
28/03:30am 9.2 3.5 5.0 75 1.9 S 24 33 13 18 1008.5 1008.5 0.0
28/03:00am 8.7 3.7 4.5 75 1.9 S 20 30 11 16 1008.6 1008.6 0.0
28/02:30am 8.4 3.1 3.1 69 2.3 SSE 20 26 11 14 1008.6 1008.6 0.0
28/02:00am 8.7 3.3 2.5 65 2.6 SSE 20 28 11 15 1008.5 1008.5 0.0
28/01:30am 8.7 2.6 2.7 66 2.5 SSE 24 32 13 17 1008.4 1008.4 0.0
28/01:00am 8.9 2.4 2.7 65 2.6 SSE 26 32 14 17 1008.4 1008.4 0.0
28/12:30am 8.7 2.6 2.9 67 2.5 SSE 24 32 13 17 1008.4 1008.4 0.0
28/12:00am 8.7 2.7 3.3 69 2.3 SSE 24 30 13 16 1008.5 1008.5 0.0
 
Date/Time
EST
Temp
°C
App
Temp
°C
Dew
Point
Rel
Hum
%
Delta-T
°C
Wind Press
QNH
hPa
Press
MSL
hPa
Rain
since 9 am
mm
Dir
 
Spd
km/h
Gust
km/h
Spd
kts
Gust
kts
27/11:30pm 8.5 3.0 3.8 72 2.0 SSE 22 30 12 16 1008.4 1008.4 0.0
27/11:00pm 8.7 2.8 4.1 73 2.0 SSE 24 32 13 17 1008.3 1008.3 0.0
27/10:30pm 8.8 2.2 4.4 74 1.9 SSE 28 37 15 20 1008.2 1008.2 0.0
27/10:00pm 8.7 3.0 4.7 76 1.8 SSE 24 33 13 18 1008.3 1008.3 0.0
27/09:30pm 8.9 2.8 4.9 76 1.8 SSE 26 33 14 18 1008.1 1008.1 0.0
27/09:00pm 9.3 3.3 5.3 76 1.8 SSE 26 35 14 19 1007.8 1007.8 0.0

Other Formats:

Comma delimited format used in spreadsheet applications
http://www.bom.gov.au/fwo/IDT60801/IDT60801.95954.axf

JavaScript Object Notation format (JSON) in row-major order
http://www.bom.gov.au/fwo/IDT60801/IDT60801.95954.json